Time;durP1;ratioP1;P1;durP2;ratioP2;P2;SDS_P1;SDS_P2;PMS_P1;PMS_P2;Temp;Humidity;BMP_temperature;BMP_pressure;BME280_temperature;BME280_humidity;BME280_pressure;Samples;Min_cycle;Max_cycle;Signal;HPM_P1;HPM_P2
2022/07/18 00:01:59;;;;;;;6.47;5.05;;;16.50;99.90;;;;;;5064132;28;20130;-91
2022/07/18 00:04:25;;;;;;;5.97;4.97;;;16.50;99.90;;;;;;5080431;28;20043;-92
2022/07/18 00:06:51;;;;;;;6.63;5.40;;;16.40;99.90;;;;;;5063258;28;20189;-91
2022/07/18 00:09:17;;;;;;;6.53;5.35;;;16.40;99.90;;;;;;5066367;28;20052;-91
2022/07/18 00:11:44;;;;;;;6.32;5.25;;;16.40;99.90;;;;;;5076367;28;20040;-91
2022/07/18 00:14:10;;;;;;;7.13;5.28;;;16.40;99.90;;;;;;5085108;28;20395;-91
2022/07/18 00:16:36;;;;;;;8.52;5.47;;;16.40;99.90;;;;;;5077926;28;20119;-91
2022/07/18 00:19:02;;;;;;;7.10;5.72;;;16.40;99.90;;;;;;5062935;28;20059;-93
2022/07/18 00:21:28;;;;;;;8.27;5.50;;;16.40;99.90;;;;;;5061730;28;20047;-91
2022/07/18 00:23:54;;;;;;;7.13;5.50;;;16.40;99.90;;;;;;5067654;28;20047;-91
2022/07/18 00:26:19;;;;;;;7.18;4.97;;;16.30;99.90;;;;;;5079855;28;20047;-91
2022/07/18 00:28:45;;;;;;;8.55;4.88;;;16.40;99.90;;;;;;5116305;28;20099;-90
2022/07/18 00:31:11;;;;;;;6.60;5.13;;;16.40;99.90;;;;;;5098375;28;20061;-89
2022/07/18 00:33:36;;;;;;;7.70;4.97;;;16.30;99.90;;;;;;5097695;28;20027;-89
2022/07/18 00:36:02;;;;;;;7.90;5.05;;;16.20;99.90;;;;;;5105426;28;20061;-91
2022/07/18 00:38:28;;;;;;;7.45;5.20;;;16.30;99.90;;;;;;5081319;28;20108;-90
2022/07/18 00:40:53;;;;;;;6.72;5.10;;;16.20;99.90;;;;;;5093662;28;20075;-90
2022/07/18 00:43:19;;;;;;;8.40;5.18;;;16.30;99.90;;;;;;5092575;28;20055;-91
2022/07/18 00:45:46;;;;;;;5.50;4.93;;;16.20;99.90;;;;;;5077253;28;20050;-92
2022/07/18 00:48:11;;;;;;;6.75;5.53;;;16.20;99.90;;;;;;5077581;28;20048;-90
2022/07/18 00:50:37;;;;;;;9.50;5.50;;;16.20;99.90;;;;;;5075397;28;20048;-92
2022/07/18 00:53:04;;;;;;;9.05;5.75;;;16.20;99.90;;;;;;5079838;28;20039;-91
2022/07/18 00:55:30;;;;;;;9.48;5.20;;;16.20;99.90;;;;;;5064297;28;20058;-91
2022/07/18 00:57:55;;;;;;;7.03;5.65;;;16.20;99.90;;;;;;5076491;28;20036;-91
2022/07/18 01:03:05;;;;;;;7.97;5.30;;;16.10;99.90;;;;;;5092236;28;20055;-91
2022/07/18 01:05:31;;;;;;;6.97;5.22;;;16.10;99.90;;;;;;5067279;28;20368;-91
2022/07/18 01:07:57;;;;;;;9.98;5.50;;;16.10;99.90;;;;;;5076265;28;20463;-91
2022/07/18 01:10:22;;;;;;;7.80;5.47;;;16.10;99.90;;;;;;5075512;28;20028;-91
2022/07/18 01:12:48;;;;;;;7.18;5.00;;;16.00;99.90;;;;;;5072875;28;20043;-91
2022/07/18 01:15:14;;;;;;;6.93;5.28;;;16.00;99.90;;;;;;5073429;28;20051;-89
2022/07/18 01:17:39;;;;;;;8.30;5.85;;;16.00;99.90;;;;;;5071017;28;20043;-89
2022/07/18 01:20:05;;;;;;;8.73;5.38;;;16.00;99.90;;;;;;5060886;28;20048;-90
2022/07/18 01:22:31;;;;;;;7.45;5.53;;;16.00;99.90;;;;;;5084451;28;20043;-92
2022/07/18 01:24:57;;;;;;;7.55;6.05;;;16.00;99.90;;;;;;5056198;28;20039;-91
2022/07/18 01:27:22;;;;;;;7.63;5.22;;;16.00;99.90;;;;;;5059544;28;20390;-92
2022/07/18 01:30:14;;;;;;;7.10;5.25;;;15.90;99.90;;;;;;5081558;28;20052;-92
2022/07/18 01:32:40;;;;;;;6.93;5.35;;;16.00;99.90;;;;;;5047347;28;20126;-92
2022/07/18 01:35:06;;;;;;;6.22;5.32;;;15.90;99.90;;;;;;5049175;28;20041;-91
2022/07/18 01:37:32;;;;;;;8.57;5.90;;;15.90;99.90;;;;;;5052178;28;20124;-91
2022/07/18 01:39:58;;;;;;;7.70;5.60;;;15.90;99.90;;;;;;5052842;28;20136;-88
2022/07/18 01:42:24;;;;;;;7.68;5.32;;;15.90;99.90;;;;;;5051014;28;20041;-90
2022/07/18 01:44:49;;;;;;;10.07;5.50;;;15.80;99.90;;;;;;5061664;28;20131;-89
2022/07/18 01:47:15;;;;;;;6.82;5.32;;;15.80;99.90;;;;;;5064272;28;20083;-90
2022/07/18 01:49:41;;;;;;;7.05;5.45;;;15.80;99.90;;;;;;5059163;28;20037;-91
2022/07/18 01:52:07;;;;;;;8.48;5.45;;;15.80;99.90;;;;;;5051769;28;20136;-91
2022/07/18 01:54:33;;;;;;;7.70;5.53;;;15.80;99.90;;;;;;5037481;28;20106;-91
2022/07/18 01:56:59;;;;;;;7.78;5.68;;;15.70;99.90;;;;;;5052489;28;20094;-90
2022/07/18 01:59:25;;;;;;;8.45;5.43;;;15.70;99.90;;;;;;5046158;28;20045;-92
2022/07/18 02:01:51;;;;;;;9.20;5.70;;;15.70;99.90;;;;;;5017758;28;20048;-92
2022/07/18 02:04:17;;;;;;;8.05;5.57;;;15.60;99.90;;;;;;5024190;28;20041;-90
2022/07/18 02:06:42;;;;;;;6.28;5.43;;;15.70;99.90;;;;;;5067361;28;20044;-92
2022/07/18 02:09:08;;;;;;;7.90;5.53;;;15.60;99.90;;;;;;5035106;28;20052;-92
2022/07/18 02:11:34;;;;;;;10.15;5.55;;;15.60;99.90;;;;;;5053817;28;20032;-90
2022/07/18 02:14:00;;;;;;;9.38;5.82;;;15.60;99.90;;;;;;5034610;28;20083;-90
2022/07/18 02:16:25;;;;;;;8.23;5.90;;;15.50;99.90;;;;;;5025944;28;20485;-90
2022/07/18 02:18:51;;;;;;;9.00;5.82;;;15.50;99.90;;;;;;5053324;28;20044;-92
2022/07/18 02:21:16;;;;;;;8.20;6.07;;;15.60;99.90;;;;;;5049987;28;20045;-91
2022/07/18 02:23:42;;;;;;;9.23;5.82;;;15.60;99.90;;;;;;5043197;28;20048;-90
2022/07/18 02:26:08;;;;;;;8.75;5.68;;;15.60;99.90;;;;;;5048423;28;20484;-90
2022/07/18 02:28:34;;;;;;;8.38;5.32;;;15.60;99.90;;;;;;5057761;28;20048;-92
2022/07/18 02:30:59;;;;;;;8.18;5.85;;;15.60;99.90;;;;;;5070752;28;20048;-90
2022/07/18 02:33:25;;;;;;;9.13;5.53;;;15.50;99.90;;;;;;5059890;28;20055;-91
2022/07/18 02:35:51;;;;;;;9.48;6.20;;;15.50;99.90;;;;;;5090530;28;20055;-91
2022/07/18 02:38:16;;;;;;;10.27;6.35;;;15.60;99.90;;;;;;5058256;28;20039;-90
2022/07/18 02:40:42;;;;;;;8.13;5.70;;;15.50;99.90;;;;;;5056642;28;20090;-90
2022/07/18 02:43:08;;;;;;;10.95;6.20;;;15.50;99.90;;;;;;5072959;28;20055;-90
2022/07/18 02:45:33;;;;;;;9.68;6.05;;;15.50;99.90;;;;;;5060112;28;20060;-89
2022/07/18 02:47:59;;;;;;;8.75;6.28;;;15.50;99.90;;;;;;5090016;28;20131;-90
2022/07/18 02:50:25;;;;;;;9.23;6.57;;;15.40;99.90;;;;;;5046503;28;20039;-91
2022/07/18 02:52:51;;;;;;;8.40;6.13;;;15.40;99.90;;;;;;5091898;28;20052;-89
2022/07/18 02:55:17;;;;;;;7.65;5.80;;;15.50;99.90;;;;;;5096830;28;20483;-88
2022/07/18 02:57:43;;;;;;;8.68;5.78;;;15.40;99.90;;;;;;5077531;28;20101;-91
2022/07/18 03:00:11;;;;;;;9.02;6.05;;;15.40;99.90;;;;;;5089421;28;20367;-91
2022/07/18 03:02:37;;;;;;;8.35;6.00;;;15.40;99.90;;;;;;5070214;28;20051;-91
2022/07/18 03:05:03;;;;;;;12.63;6.20;;;15.40;99.90;;;;;;5054979;28;20043;-91
2022/07/18 03:07:28;;;;;;;8.85;6.88;;;15.40;99.90;;;;;;5072797;28;20054;-92
2022/07/18 03:09:54;;;;;;;8.57;6.45;;;15.40;99.90;;;;;;5086644;28;20075;-91
2022/07/18 03:12:25;;;;;;;7.82;6.05;;;15.40;99.90;;;;;;5070308;28;20044;-91
2022/07/18 03:14:57;;;;;;;7.50;5.97;;;15.30;99.90;;;;;;5072254;28;20387;-91
2022/07/18 03:17:23;;;;;;;7.82;5.70;;;15.30;99.90;;;;;;5102274;28;20039;-91
2022/07/18 03:19:49;;;;;;;9.23;6.63;;;15.20;99.90;;;;;;5115984;28;20036;-93
2022/07/18 03:22:14;;;;;;;7.82;6.30;;;15.20;99.90;;;;;;5082089;28;20148;-91
2022/07/18 03:24:40;;;;;;;8.88;6.18;;;15.20;99.90;;;;;;5099758;28;20073;-91
2022/07/18 03:27:05;;;;;;;9.20;6.18;;;15.20;99.90;;;;;;5123117;28;20126;-91
2022/07/18 03:29:31;;;;;;;7.97;5.70;;;15.20;99.90;;;;;;5099110;28;20463;-91
2022/07/18 03:31:57;;;;;;;9.13;6.43;;;15.20;99.90;;;;;;5083778;28;20055;-91
2022/07/18 03:34:22;;;;;;;9.60;5.97;;;15.20;99.90;;;;;;5086803;28;20051;-90
2022/07/18 03:36:48;;;;;;;8.32;6.57;;;15.20;99.90;;;;;;5071047;28;20048;-91
2022/07/18 03:39:14;;;;;;;11.05;6.50;;;15.20;99.90;;;;;;5088312;28;20145;-92
2022/07/18 03:41:39;;;;;;;9.02;5.63;;;15.30;99.90;;;;;;5108248;28;20056;-92
2022/07/18 03:44:05;;;;;;;9.85;6.32;;;15.30;99.90;;;;;;5082348;28;20061;-91
2022/07/18 03:46:31;;;;;;;11.23;5.90;;;15.30;99.90;;;;;;5105985;28;20079;-92
2022/07/18 03:48:57;;;;;;;9.40;5.75;;;15.30;99.90;;;;;;5105748;28;20059;-91
2022/07/18 03:51:22;;;;;;;9.15;6.10;;;15.30;99.90;;;;;;5105291;28;20049;-94
2022/07/18 03:53:51;;;;;;;8.40;5.50;;;15.40;99.90;;;;;;5120215;28;20050;-92
2022/07/18 03:56:17;;;;;;;10.25;5.78;;;15.40;99.90;;;;;;5094476;28;20039;-92
2022/07/18 03:58:43;;;;;;;9.75;6.60;;;15.40;99.90;;;;;;5077026;28;20046;-92
2022/07/18 04:01:08;;;;;;;11.35;5.90;;;15.30;99.90;;;;;;5089637;28;20056;-91
2022/07/18 04:03:34;;;;;;;8.38;5.38;;;15.30;99.90;;;;;;5107100;28;20061;-92
2022/07/18 04:06:00;;;;;;;8.68;5.43;;;15.30;99.90;;;;;;5107078;28;20085;-91
2022/07/18 04:08:26;;;;;;;7.78;5.72;;;15.30;99.90;;;;;;5089525;28;20043;-93
2022/07/18 04:10:52;;;;;;;9.23;5.90;;;15.40;99.90;;;;;;5107013;28;20053;-90
2022/07/18 04:13:17;;;;;;;8.10;5.43;;;15.40;99.90;;;;;;5090332;28;20088;-93
2022/07/18 04:15:43;;;;;;;6.93;5.53;;;15.50;99.90;;;;;;5123881;28;20034;-92
2022/07/18 04:18:09;;;;;;;8.13;5.82;;;15.50;99.90;;;;;;5124123;28;20026;-93
2022/07/18 04:20:35;;;;;;;8.73;5.60;;;15.50;99.90;;;;;;5095581;28;20520;-91
2022/07/18 04:23:03;;;;;;;7.47;5.30;;;15.50;99.90;;;;;;5067461;28;20126;-90
2022/07/18 04:25:32;;;;;;;7.13;5.88;;;15.60;99.90;;;;;;5066468;28;20058;-91
2022/07/18 04:27:58;;;;;;;9.02;6.07;;;15.60;99.90;;;;;;5067386;28;20100;-91
2022/07/18 04:30:25;;;;;;;9.95;6.03;;;15.70;99.90;;;;;;5083734;28;20126;-91
2022/07/18 04:32:50;;;;;;;8.15;5.60;;;15.80;99.90;;;;;;5101844;28;20056;-91
2022/07/18 04:35:19;;;;;;;8.70;6.10;;;15.90;99.90;;;;;;5071819;28;20576;-88
2022/07/18 04:37:45;;;;;;;6.80;5.15;;;16.00;99.90;;;;;;5084398;28;20131;-90
2022/07/18 04:40:11;;;;;;;7.75;5.32;;;16.10;99.90;;;;;;5066651;28;20039;-91
2022/07/18 04:42:36;;;;;;;8.88;5.93;;;16.20;99.90;;;;;;5066252;28;20047;-91
2022/07/18 04:45:07;;;;;;;8.82;6.20;;;16.40;99.90;;;;;;5083025;28;20058;-90
2022/07/18 04:47:33;;;;;;;7.43;5.07;;;16.40;99.90;;;;;;5067207;28;20055;-93
2022/07/18 04:49:59;;;;;;;8.98;5.65;;;16.50;99.90;;;;;;5099430;28;20043;-91
2022/07/18 04:52:24;;;;;;;7.95;5.63;;;16.50;99.90;;;;;;5065791;28;20043;-91
2022/07/18 04:54:50;;;;;;;8.43;5.03;;;16.60;99.90;;;;;;5065907;28;20058;-91
2022/07/18 04:57:16;;;;;;;7.43;5.00;;;16.60;99.90;;;;;;5083876;28;20047;-91
2022/07/18 04:59:42;;;;;;;6.85;4.80;;;16.70;99.90;;;;;;5083677;28;20484;-92
2022/07/18 05:02:08;;;;;;;5.97;4.50;;;16.80;99.90;;;;;;5083805;28;20433;-91
2022/07/18 05:04:34;;;;;;;8.10;4.55;;;16.80;99.90;;;;;;5099516;28;20134;-90
2022/07/18 05:07:00;;;;;;;8.15;5.13;;;17.00;99.90;;;;;;5100631;28;20075;-91
2022/07/18 05:09:26;;;;;;;7.75;4.40;;;17.10;99.90;;;;;;5084344;28;20107;-93
2022/07/18 05:11:52;;;;;;;7.20;5.40;;;17.20;99.90;;;;;;5069989;28;20040;-93
2022/07/18 05:14:20;;;;;;;7.65;4.60;;;17.30;99.90;;;;;;5054830;28;20050;-93
2022/07/18 05:16:47;;;;;;;6.32;4.20;;;17.50;99.90;;;;;;5094665;28;20051;-92
2022/07/18 05:19:15;;;;;;;6.15;3.92;;;17.60;99.90;;;;;;5086551;28;20024;-93
2022/07/18 05:21:40;;;;;;;7.80;4.45;;;17.70;99.90;;;;;;5088911;28;20067;-91
2022/07/18 05:24:13;;;;;;;4.90;3.92;;;18.00;99.90;;;;;;5089859;28;20057;-92
2022/07/18 05:26:38;;;;;;;5.70;3.83;;;17.90;99.90;;;;;;5105771;28;20031;-92
2022/07/18 05:29:04;;;;;;;6.22;3.55;;;17.90;99.90;;;;;;5074662;28;20533;-91
2022/07/18 05:31:30;;;;;;;5.43;3.55;;;17.90;99.90;;;;;;5122312;28;20039;-91
2022/07/18 05:33:56;;;;;;;4.55;3.65;;;18.00;99.90;;;;;;5118596;28;20051;-91
2022/07/18 05:36:21;;;;;;;3.85;3.33;;;18.00;99.90;;;;;;5117697;28;20044;-91
2022/07/18 05:38:47;;;;;;;12.75;3.75;;;18.00;99.90;;;;;;5102923;28;20032;-93
2022/07/18 05:41:15;;;;;;;4.45;3.00;;;18.10;99.90;;;;;;5122507;28;20134;-91
2022/07/18 05:43:41;;;;;;;5.55;3.00;;;18.20;99.90;;;;;;5122481;28;20113;-93
2022/07/18 05:46:07;;;;;;;5.97;3.17;;;18.40;99.90;;;;;;5138455;28;20044;-92
2022/07/18 05:48:32;;;;;;;6.10;3.63;;;18.50;99.90;;;;;;5099529;28;20048;-91
2022/07/18 05:50:58;;;;;;;5.80;3.28;;;18.60;99.90;;;;;;5111315;28;20039;-92
2022/07/18 05:53:24;;;;;;;6.45;3.20;;;18.00;99.90;;;;;;5114662;28;20056;-92
2022/07/18 05:55:49;;;;;;;10.38;3.10;;;19.00;99.90;;;;;;5076948;28;20043;-91
2022/07/18 05:58:15;;;;;;;5.22;3.40;;;19.10;99.90;;;;;;5089266;28;20051;-93
2022/07/18 06:00:41;;;;;;;4.90;3.00;;;19.20;99.90;;;;;;5103788;28;20051;-92
2022/07/18 06:03:06;;;;;;;7.53;3.38;;;19.30;99.90;;;;;;5065252;28;20051;-92
2022/07/18 06:05:32;;;;;;;6.03;2.83;;;19.30;99.90;;;;;;5065067;28;20043;-91
2022/07/18 06:07:58;;;;;;;7.90;3.05;;;19.30;99.90;;;;;;5098239;28;20048;-91
2022/07/18 06:10:25;;;;;;;3.80;2.70;;;19.40;99.90;;;;;;5098226;28;20048;-91
2022/07/18 06:12:51;;;;;;;6.43;2.83;;;19.60;99.90;;;;;;5081240;28;20105;-93
2022/07/18 06:15:17;;;;;;;4.38;2.95;;;19.60;99.90;;;;;;5098282;28;20043;-93
2022/07/18 06:17:43;;;;;;;4.35;2.90;;;19.70;99.90;;;;;;5099130;28;20052;-91
2022/07/18 06:20:09;;;;;;;4.88;3.00;;;19.90;99.90;;;;;;5090843;28;20121;-91
2022/07/18 06:22:35;;;;;;;5.53;2.70;;;19.90;99.90;;;;;;5095388;28;20039;-91
2022/07/18 06:25:01;;;;;;;3.63;2.70;;;20.20;99.90;;;;;;5108870;28;20048;-91
2022/07/18 06:27:27;;;;;;;3.97;2.40;;;20.30;99.90;;;;;;5094930;28;20049;-92
2022/07/18 06:29:59;;;;;;;9.25;2.58;;;20.70;99.90;;;;;;5112808;28;20057;-90
2022/07/18 06:32:33;;;;;;;4.95;2.78;;;21.00;99.90;;;;;;5057394;28;20048;-88
2022/07/18 06:34:59;;;;;;;3.30;2.63;;;21.30;99.90;;;;;;5117859;28;20486;-91
2022/07/18 06:37:25;;;;;;;4.47;2.80;;;21.70;99.90;;;;;;5101846;28;20044;-90
2022/07/18 06:39:53;;;;;;;5.72;2.47;;;22.00;99.90;;;;;;5100065;28;20087;-91
2022/07/18 06:42:19;;;;;;;2.80;2.28;;;22.00;99.90;;;;;;5086429;28;20351;-93
2022/07/18 06:44:47;;;;;;;3.80;2.45;;;22.40;99.90;;;;;;5093916;28;20044;-92
2022/07/18 06:47:15;;;;;;;6.63;2.40;;;22.40;99.90;;;;;;5071316;28;20024;-91
2022/07/18 06:49:45;;;;;;;3.65;2.30;;;24.10;99.90;;;;;;5098069;28;20126;-92
2022/07/18 06:52:11;;;;;;;4.30;2.38;;;24.40;99.90;;;;;;5081902;28;20461;-92
2022/07/18 06:54:40;;;;;;;3.08;2.30;;;25.10;99.90;;;;;;5065443;28;20044;-93
2022/07/18 06:57:09;;;;;;;5.25;2.60;;;25.10;99.90;;;;;;5083293;28;20044;-93
2022/07/18 06:59:41;;;;;;;3.60;2.08;;;25.10;99.90;;;;;;5066691;28;20048;-93
2022/07/18 07:02:07;;;;;;;4.03;2.20;;;25.10;99.90;;;;;;5067305;28;20047;-92
2022/07/18 07:04:36;;;;;;;4.70;2.25;;;25.50;99.90;;;;;;5074634;28;20057;-92
2022/07/18 07:07:04;;;;;;;4.20;2.40;;;25.90;99.90;;;;;;5071364;28;20028;-89
2022/07/18 07:09:36;;;;;;;3.75;1.98;;;26.50;99.90;;;;;;5086905;28;20051;-92
2022/07/18 07:12:12;;;;;;;3.28;2.25;;;26.70;99.90;;;;;;5084257;28;20069;-92
2022/07/18 07:14:41;;;;;;;4.45;2.05;;;26.70;99.10;;;;;;5067900;28;20502;-93
2022/07/18 07:17:18;;;;;;;4.43;2.13;;;27.30;99.60;;;;;;5051686;28;20047;-92
2022/07/18 07:19:46;;;;;;;2.60;1.80;;;27.50;98.70;;;;;;5053518;28;20060;-90
2022/07/18 07:22:12;;;;;;;6.38;2.05;;;27.30;98.10;;;;;;5068979;28;20051;-91
2022/07/18 07:24:39;;;;;;;4.10;2.00;;;27.50;98.40;;;;;;5067894;28;20048;-93
2022/07/18 07:27:06;;;;;;;5.25;2.03;;;27.20;97.60;;;;;;5086346;28;20044;-92
2022/07/18 07:29:34;;;;;;;2.90;1.90;;;28.10;97.60;;;;;;5068965;28;20043;-91
2022/07/18 07:32:03;;;;;;;2.70;1.90;;;27.60;97.10;;;;;;5051397;28;20059;-92
2022/07/18 07:34:34;;;;;;;2.95;1.92;;;28.10;97.50;;;;;;5054400;28;20403;-90
2022/07/18 07:37:04;;;;;;;2.58;1.70;;;28.10;97.30;;;;;;5052547;28;20043;-90
2022/07/18 07:39:30;;;;;;;3.10;1.80;;;28.60;96.60;;;;;;5108107;28;20047;-92
2022/07/18 07:41:56;;;;;;;2.40;1.83;;;28.10;97.10;;;;;;5090123;28;20083;-91
2022/07/18 07:44:22;;;;;;;3.65;2.05;;;28.20;97.10;;;;;;5116610;28;20040;-90
2022/07/18 07:46:51;;;;;;;2.80;2.03;;;28.50;96.70;;;;;;5098626;28;20078;-89
2022/07/18 07:49:24;;;;;;;2.50;1.70;;;29.00;96.40;;;;;;5116964;28;20170;-94
2022/07/18 07:51:55;;;;;;;3.10;2.00;;;28.80;96.30;;;;;;5085246;28;20513;-94
2022/07/18 07:54:23;;;;;;;2.42;1.55;;;28.20;96.40;;;;;;5082805;28;20047;-94
2022/07/18 07:56:49;;;;;;;3.08;1.90;;;28.50;96.40;;;;;;5063155;28;20063;-91
2022/07/18 07:59:33;;;;;;;3.03;1.83;;;28.00;96.30;;;;;;5065378;28;20174;-92
2022/07/18 08:02:09;;;;;;;;;;;28.60;97.30;;;;;;5069405;28;20074;-94
2022/07/18 08:07:32;;;;;;;3.25;1.90;;;27.40;97.50;;;;;;5208049;22;20117;-94
2022/07/18 08:10:09;;;;;;;3.65;1.90;;;27.70;97.50;;;;;;5433949;23;20467;-95
2022/07/18 08:13:49;;;;;;;4.13;1.90;;;28.40;97.20;;;;;;4978288;28;20046;-96
2022/07/18 08:26:20;;;;;;;3.50;1.65;;;28.60;95.70;;;;;;4130496;22;20499;-91
2022/07/18 08:28:49;;;;;;;1.98;1.60;;;28.60;95.30;;;;;;4967419;28;20058;-88
2022/07/18 08:31:16;;;;;;;2.30;1.70;;;28.80;95.60;;;;;;4974286;28;20038;-89
2022/07/18 08:33:42;;;;;;;2.55;1.63;;;28.70;96.20;;;;;;5022426;28;20057;-92
2022/07/18 08:36:08;;;;;;;1.95;1.70;;;28.80;95.70;;;;;;5002087;28;20047;-91
2022/07/18 08:38:38;;;;;;;2.70;1.80;;;29.00;96.00;;;;;;4988803;28;20046;-90
2022/07/18 08:41:04;;;;;;;2.92;1.98;;;28.10;95.10;;;;;;4960776;28;20056;-91
2022/07/18 08:43:35;;;;;;;2.60;1.58;;;28.70;95.30;;;;;;4976506;28;20053;-90
2022/07/18 08:46:07;;;;;;;2.58;1.45;;;30.00;95.80;;;;;;4974300;28;20045;-89
2022/07/18 08:48:38;;;;;;;3.42;1.60;;;30.20;95.50;;;;;;4990611;28;20046;-91
2022/07/18 08:51:04;;;;;;;3.05;1.60;;;30.20;95.10;;;;;;4998890;28;20042;-90
2022/07/18 08:53:37;;;;;;;4.25;1.50;;;30.50;94.80;;;;;;4984038;28;20100;-90
2022/07/18 08:56:08;;;;;;;2.80;1.80;;;30.60;94.60;;;;;;4970659;28;20517;-89
2022/07/18 08:58:35;;;;;;;3.88;1.50;;;30.30;94.50;;;;;;4970493;28;20046;-90
2022/07/18 09:01:15;;;;;;;2.65;1.60;;;30.60;95.00;;;;;;4983615;28;20081;-94
2022/07/18 09:03:46;;;;;;;5.22;1.80;;;30.90;94.90;;;;;;4949979;28;20053;-90
2022/07/18 09:06:43;;;;;;;3.28;1.60;;;31.00;94.90;;;;;;4981798;28;20049;-89
2022/07/18 09:09:22;;;;;;;2.45;1.30;;;30.40;94.30;;;;;;4948729;28;20049;-90
2022/07/18 09:11:56;;;;;;;2.42;1.60;;;30.20;94.60;;;;;;5003648;28;20049;-92
2022/07/18 09:14:31;;;;;;;3.10;1.50;;;29.90;94.40;;;;;;4951297;28;20493;-90
2022/07/18 09:20:25;;;;;;;4.43;1.40;;;28.30;94.10;;;;;;5001418;28;20056;-88
2022/07/18 09:23:14;;;;;;;3.20;1.80;;;29.20;95.00;;;;;;4953483;28;20156;-94
2022/07/18 09:26:03;;;;;;;1.92;1.30;;;28.70;95.30;;;;;;4984751;28;20089;-88
2022/07/18 09:28:29;;;;;;;3.05;1.70;;;29.00;95.20;;;;;;5009021;28;20076;-90
2022/07/18 09:30:55;;;;;;;5.82;1.70;;;29.20;95.50;;;;;;4999253;28;20018;-94
2022/07/18 09:33:22;;;;;;;4.65;1.65;;;29.50;95.80;;;;;;4991865;28;20132;-91
2022/07/18 09:35:53;;;;;;;3.53;1.50;;;30.00;94.70;;;;;;4973941;28;20367;-87
2022/07/18 09:38:22;;;;;;;1.65;1.40;;;30.10;94.70;;;;;;4998726;28;20081;-89
2022/07/18 09:41:06;;;;;;;2.90;1.58;;;30.10;94.60;;;;;;4982737;28;20050;-91
2022/07/18 09:43:38;;;;;;;3.00;1.48;;;30.20;94.00;;;;;;4986115;28;20045;-90
2022/07/18 09:46:08;;;;;;;2.72;1.40;;;30.10;93.90;;;;;;4988927;28;20046;-93
2022/07/18 09:48:37;;;;;;;2.35;1.50;;;30.70;93.90;;;;;;4973566;28;20054;-94
2022/07/18 09:51:19;;;;;;;;;;;;;;;;;;;;;
2022/07/18 09:53:47;;;;;;;3.72;1.50;;;31.00;94.00;;;;;;4986474;28;20049;-88
2022/07/18 09:56:42;;;;;;;;;;;;;;;;;;;;;
2022/07/18 09:59:18;;;;;;;2.60;1.52;;;31.20;93.80;;;;;;5002613;28;20034;-93
2022/07/18 10:01:52;;;;;;;6.22;1.80;;;29.10;92.90;;;;;;4981056;28;20054;-93
2022/07/18 10:04:49;;;;;;;3.83;1.75;;;29.90;93.20;;;;;;4973851;28;20089;-96
2022/07/18 10:07:28;;;;;;;;;;;;;;;;;;;;;
2022/07/18 10:10:58;;;;;;;;;;;;;;;;;;;;;
2022/07/18 10:14:05;;;;;;;3.88;1.60;;;30.60;93.50;;;;;;4905200;29;20049;-96
2022/07/18 10:16:33;;;;;;;3.42;1.92;;;30.90;92.70;;;;;;4874234;29;20071;-94
2022/07/18 10:22:51;;;;;;;2.30;2.10;;;30.70;93.10;;;;;;4959023;28;20411;-92
2022/07/18 10:25:22;;;;;;;2.28;1.60;;;31.80;93.20;;;;;;4988412;28;20053;-93
2022/07/18 10:28:04;;;;;;;2.22;2.03;;;32.30;93.80;;;;;;4957583;28;20572;-93
2022/07/18 10:30:53;;;;;;;3.03;1.80;;;31.60;92.60;;;;;;4968969;28;20046;-95
2022/07/18 10:34:07;;;;;;;4.75;1.80;;;31.60;92.80;;;;;;4965135;28;20109;-92
2022/07/18 10:36:51;;;;;;;3.42;2.03;;;32.20;93.60;;;;;;4966923;28;20050;-90
2022/07/18 10:39:33;;;;;;;;;;;32.00;92.80;;;;;;4998487;28;20050;-94
2022/07/18 10:42:01;;;;;;;2.33;2.00;;;32.00;91.90;;;;;;4999379;28;19984;-93
2022/07/18 10:44:32;;;;;;;4.00;2.20;;;31.90;92.10;;;;;;5004597;28;20084;-93
2022/07/18 10:47:12;;;;;;;4.25;2.33;;;31.60;91.20;;;;;;5021555;28;20073;-93
2022/07/18 10:49:56;;;;;;;4.43;2.50;;;31.80;91.50;;;;;;5154863;23;20056;-92
2022/07/18 10:52:43;;;;;;;2.95;2.40;;;31.60;91.30;;;;;;5511282;22;20059;-93
2022/07/18 10:55:10;;;;;;;3.45;2.58;;;31.70;90.90;;;;;;4992924;28;20074;-94
2022/07/18 10:58:06;;;;;;;;;;;;;;;;;;;;;
2022/07/18 11:00:42;;;;;;;2.65;2.40;;;32.70;89.70;;;;;;4969676;28;20047;-92
2022/07/18 11:03:14;;;;;;;3.80;2.50;;;32.50;90.90;;;;;;4947453;28;20038;-89
2022/07/18 11:05:45;;;;;;;7.50;3.88;;;32.30;90.40;;;;;;4948566;28;20054;-91
2022/07/18 11:08:13;;;;;;;4.00;3.08;;;32.40;89.70;;;;;;4954251;28;20050;-90
2022/07/18 11:10:45;;;;;;;3.03;2.72;;;32.20;88.10;;;;;;4964356;28;20074;-91
2022/07/18 11:13:24;;;;;;;3.97;2.83;;;32.50;89.30;;;;;;4961362;28;20042;-91
2022/07/18 11:18:44;;;;;;;4.28;2.70;;;32.60;88.90;;;;;;4945826;28;20069;-92
2022/07/18 11:21:47;;;;;;;5.38;3.20;;;31.70;88.60;;;;;;4964343;28;20074;-92
2022/07/18 11:24:13;;;;;;;3.10;2.80;;;32.20;88.10;;;;;;4947201;28;20063;-89
2022/07/18 11:26:57;;;;;;;3.50;2.67;;;32.40;90.20;;;;;;4936373;28;20133;-88
2022/07/18 11:29:31;;;;;;;3.47;2.80;;;32.10;90.10;;;;;;4940892;28;20094;-92
2022/07/18 11:31:59;;;;;;;4.30;2.70;;;31.80;89.80;;;;;;4938422;28;20055;-94
2022/07/18 11:34:29;;;;;;;4.47;3.15;;;31.70;90.20;;;;;;4953166;28;20134;-92
2022/07/18 11:37:55;;;;;;;;;;;;;;;;;;;;;
2022/07/18 11:40:22;;;;;;;4.35;2.65;;;31.60;89.80;;;;;;4984529;28;20049;-89
2022/07/18 11:46:53;;;;;;;3.10;2.70;;;31.60;90.80;;;;;;4909717;28;20126;-90
2022/07/18 11:49:21;;;;;;;6.22;3.42;;;31.60;90.20;;;;;;4949677;28;20045;-90
2022/07/18 11:51:47;;;;;;;5.82;3.13;;;31.60;89.40;;;;;;4913482;28;20040;-90
2022/07/18 11:54:14;;;;;;;7.13;3.15;;;31.30;89.60;;;;;;4937846;28;20087;-89
2022/07/18 11:56:47;;;;;;;3.47;2.80;;;31.30;90.10;;;;;;4914638;28;20046;-91
2022/07/18 11:59:13;;;;;;;4.25;2.80;;;31.40;90.10;;;;;;4914165;28;20055;-90
2022/07/18 12:01:44;;;;;;;3.30;2.60;;;31.50;90.30;;;;;;4914346;28;20526;-91
2022/07/18 12:04:20;;;;;;;3.38;2.80;;;31.60;90.10;;;;;;4947092;28;20042;-90
2022/07/18 12:07:18;;;;;;;4.93;2.88;;;31.40;90.00;;;;;;4953071;28;20050;-89
2022/07/18 12:09:47;;;;;;;3.47;2.67;;;31.90;90.20;;;;;;4962805;28;20047;-90
2022/07/18 12:12:15;;;;;;;4.65;2.70;;;31.80;90.10;;;;;;4985119;28;20053;-94
2022/07/18 12:14:41;;;;;;;4.07;2.97;;;31.60;88.70;;;;;;4972109;28;20062;-93
2022/07/18 12:17:07;;;;;;;4.72;3.03;;;31.60;90.00;;;;;;4940999;28;20046;-89
2022/07/18 12:19:35;;;;;;;4.05;2.97;;;31.60;89.70;;;;;;4956958;28;20061;-90
2022/07/18 12:22:24;;;;;;;6.72;2.90;;;31.70;89.00;;;;;;4957268;28;20089;-89
2022/07/18 12:24:52;;;;;;;3.78;2.90;;;31.50;88.20;;;;;;4943176;28;20147;-89
2022/07/18 12:31:38;;;;;;;4.55;3.20;;;31.30;89.40;;;;;;4985308;28;20038;-95
2022/07/18 12:38:45;;;;;;;3.22;2.92;;;31.30;89.80;;;;;;5107094;23;20130;-94
2022/07/18 12:41:10;;;;;;;2.72;2.53;;;31.40;89.60;;;;;;5018137;28;20106;-93
2022/07/18 12:44:05;;;;;;;3.10;2.78;;;30.80;90.00;;;;;;4965925;28;20503;-92
2022/07/18 12:54:00;;;;;;;3.72;2.90;;;30.40;90.20;;;;;;4999705;28;20053;-90
2022/07/18 12:56:34;;;;;;;3.85;2.80;;;30.50;90.60;;;;;;4965420;28;20043;-93
2022/07/18 12:59:05;;;;;;;3.92;2.80;;;30.80;91.00;;;;;;4955415;28;20050;-91
2022/07/18 13:01:33;;;;;;;3.08;2.72;;;30.90;90.40;;;;;;4965180;28;20027;-92
2022/07/18 13:03:59;;;;;;;3.78;3.30;;;30.60;90.10;;;;;;4958543;28;20069;-86
2022/07/18 13:06:25;;;;;;;3.65;2.67;;;30.20;89.70;;;;;;5013586;28;20034;-93
2022/07/18 13:08:52;;;;;;;4.97;3.25;;;30.10;90.00;;;;;;4968018;28;20043;-89
2022/07/18 13:11:24;;;;;;;3.30;3.00;;;29.90;89.40;;;;;;4993252;28;20023;-88
2022/07/18 13:13:55;;;;;;;4.55;2.85;;;29.70;90.20;;;;;;4985570;28;20081;-93
2022/07/18 13:16:26;;;;;;;3.88;2.75;;;29.70;90.10;;;;;;4966149;28;20509;-90
2022/07/18 13:18:57;;;;;;;3.90;2.80;;;29.50;90.00;;;;;;4991175;28;20382;-91
2022/07/18 13:21:25;;;;;;;3.10;2.80;;;28.50;89.10;;;;;;4948935;28;20078;-91
2022/07/18 13:23:50;;;;;;;3.90;2.95;;;30.20;90.30;;;;;;4965438;28;20046;-89
2022/07/18 13:26:19;;;;;;;3.10;2.80;;;29.10;89.90;;;;;;4954502;28;20137;-89
2022/07/18 13:28:47;;;;;;;4.40;2.90;;;30.60;90.30;;;;;;4984073;28;20027;-93
2022/07/18 13:31:17;;;;;;;4.22;3.15;;;30.50;90.40;;;;;;5001549;28;20054;-92
2022/07/18 13:36:21;;;;;;;7.47;3.75;;;31.10;89.20;;;;;;5374566;23;20050;-93
2022/07/18 13:38:50;;;;;;;4.10;3.00;;;31.30;89.90;;;;;;5024941;28;20033;-94
2022/07/18 13:41:16;;;;;;;3.20;2.90;;;32.20;89.10;;;;;;5011616;28;20129;-90
2022/07/18 13:43:47;;;;;;;4.20;2.95;;;31.00;89.10;;;;;;4979868;28;20081;-90
2022/07/18 13:46:18;;;;;;;3.92;2.78;;;30.80;88.60;;;;;;4973709;28;20085;-92
2022/07/18 13:48:46;;;;;;;3.75;3.28;;;30.90;87.90;;;;;;4981066;28;20049;-92
2022/07/18 13:51:14;;;;;;;4.63;3.20;;;30.70;89.50;;;;;;4975891;28;20050;-92
2022/07/18 13:53:40;;;;;;;4.15;2.88;;;30.60;90.10;;;;;;4974887;28;20104;-91
2022/07/18 13:56:09;;;;;;;4.15;3.08;;;30.50;90.20;;;;;;4990071;28;20049;-96